CheckWX is a tool to help pilots better visualize weather data.  It is not intended as a substitute for an official pre-flight weather briefing.

05:42:52 UTC

EGLC TAF
London City Airport
London, United Kingdom
TAF EGLC 230159Z 2303/2312 VRB03KT CAVOK BECMG 2303/2305 6000 PROB40 TEMPO 2304/2307 4000 BR BECMG 2307/2309 CAVOK

Aug-23@
03:00 UTC

Aug-23 @ 03:00 UTC

Aug-23@
12:00 UTC

Aug-23 @ 12:00 UTC

TAF EGLC 230159Z 2303/2312 VRB03KT CAVOK
Wind
  • Variable at 3 KTS
Conditions
No significant weather
Cloud Levels
  • No significant clouds

Aug-23@
03:00 UTC

Aug-23 @ 03:00 UTC

Aug-23@
07:00 UTC

Aug-23 @ 07:00 UTC

BECMG 2303/2305 6000

Becoming

Becoming Conditions expected by Fri, Aug 23, 2019 @ 05:00 UTC

Wind
  • Variable at 3 KTS
Conditions
No significant weather
Cloud Levels
  • No significant clouds

Aug-23@
04:00 UTC

Aug-23 @ 04:00 UTC

Aug-23@
07:00 UTC

Aug-23 @ 07:00 UTC

PROB40 TEMPO 2304/2307 4000 BR

Temporary - 40% Likelihood

Temporary - 40% Likelihood during this time.

Conditions
Mist

Aug-23@
07:00 UTC

Aug-23 @ 07:00 UTC

Aug-23@
12:00 UTC

Aug-23 @ 12:00 UTC

BECMG 2307/2309 CAVOK

Becoming

Becoming Conditions expected by Fri, Aug 23, 2019 @ 09:00 UTC

Wind
  • Variable at 3 KTS
Conditions
No significant weather
Cloud Levels
  • No significant clouds